< Typhoon 197231 1973 Season Typhoon 197302 >
Typhoon 197301 (WILDA)
General InformationTrack Information on Google Maps || Disaster Info.ResourceGoogle EarthGE AnimationAtom FeedGeoJSON
Detalied Best Track (Time Zone = UTC)
Year Month Day Hour Lat. Long. Pressure (hPa) Wind (kt) Class Image Chart
1973 6 28 12 9.2 127.6 1006 0 2 -- Chart
1973 6 28 18 12.0 127.0 1006 0 2 -- Chart
1973 6 29 00 13.5 126.3 1006 0 2 -- Chart
1973 6 29 06 14.2 125.4 1004 0 2 -- Chart
1973 6 29 12 15.2 124.2 1004 0 2 -- Chart
1973 6 29 18 16.0 123.2 1004 0 2 -- Chart
1973 6 30 00 17.0 122.0 1006 0 2 -- Chart
1973 6 30 06 17.4 120.5 1006 0 2 -- Chart
1973 6 30 12 18.0 119.3 1004 0 2 -- Chart
1973 6 30 18 18.3 119.0 1002 0 2 -- Chart
1973 7 1 00 18.5 118.7 998 0 2 -- Chart
1973 7 1 06 18.9 118.5 998 0 2 -- Chart
1973 7 1 12 19.4 118.3 994 0 2 -- Chart
1973 7 1 18 20.0 118.0 985 0 9 -- Chart
1973 7 2 00 20.6 117.8 980 0 9 -- Chart
1973 7 2 06 21.5 117.7 985 0 9 -- Chart
1973 7 2 12 22.1 117.7 985 0 9 -- Chart
1973 7 2 18 22.8 117.7 985 0 9 -- Chart
1973 7 3 00 23.4 117.9 985 0 9 -- Chart
1973 7 3 06 24.4 118.2 985 0 9 -- Chart
1973 7 3 12 25.0 118.3 980 0 9 -- Chart
1973 7 3 18 26.0 118.5 985 0 9 -- Chart
1973 7 4 00 28.0 118.0 1000 0 2 -- Chart
1973 7 4 06 28.8 118.0 1000 0 2 -- Chart
1973 7 4 12 29.6 117.7 1000 0 2 -- Chart
1973 7 4 18 30.2 117.4 1001 0 2 -- Chart
1973 7 5 00 30.0 116.9 1002 0 2 -- Chart
1973 7 5 06 30.0 116.0 1002 0 2 -- Chart
1973 7 5 12 30.7 115.0 1002 0 2 -- Chart
1973 7 5 18 29.5 113.0 1003 0 2 -- Chart
1973 7 6 00 28.0 112.0 1004 0 6 -- Chart
Japan Meteorological Agency Best Track Data | Correction Date : 1989-06-01
< Typhoon 197231 1973 Season Typhoon 197302 >

Help